KIKW

Jack Barstow Airport

Midland, Michigan, USA
METAR KIKW 201555Z AUTO 10008KT 10SM SCT030 26/17 A3003 RMK AO2 T02570170 P0003
Observed Flight Rules
Aug-20 @ 15:55 UTC (28 minutes ago) Visual Flight Rules
Wind Visibility Clouds
100° at 8 knots 10 miles
  • Scattered at 3,000' AGL
Temperatures Readings Precipitation
Current 26°C / 79°F
Dewpoint 17°C / 63°F
Humidity 58%
Altimeter 30.03" Hg
Pressure 1017 hPa
Elevation 194
Current Rain 0.03
METAR KIKW 201555Z AUTO 10008KT 10SM SCT030 26/17 A3003 RMK AO2 T02570170 P0003
Observed Flight Rules
Aug-20 @ 15:55 UTC
(28 minutes ago)
VFR
Wind Visibility
100° at 8 knots 10 miles
Clouds
  • Scattered at 3,000' AGL
Temperature Dewpoint
26°C / 79°F 17°C / 63°F
Humidity Altimeter Pressure
58% 30.03" Hg 1017 hPa
Current Rain
0.03